Tropical Cyclones
[Index]
Main Index Home Page Stock Weather Photos Extreme Storms Discussion Storm News and Storm Chasing Reports Tropical Cyclones / Hurricanes / Typhoons Weather Data and Links Wild Fires / Bushfires Weather Observation Techniques Weather Picture Catalogue Tornado Pictures and Reports Stock Video Footage and DVDs for sale
Season 2014-2015 Tropical Cyclone QUANG Track Map
Season 2014-2015 Summaries: [BoM-AU] [JTWC-AU] [JTWC-SIO] [JTWC-SPAC] [JTWC-SH]
<<- Previous TC | JTWC 2014-2015 Season | Next TC ->>

click for intensity scale information  Lat/long Grid: Show Hide

 Date Labels: Show Hide

Joint Typhoon Warning Centre Cyclone Data

Name: QUANG

27 Apr 2015 12:00 UTC to 01 May 2015 12:00 UTC

    date/time    lat    long     hPa   cat  kts
2015-04-27 12   13.1   113.3    1007         20          
2015-04-27 18   13.5   112.9    1004         25          
2015-04-28 00   13.8   112.4    1004         25          
2015-04-28 06   14.0   111.4    1005         25          
2015-04-28 12   14.4   110.6    1001         30          
2015-04-28 18   14.8   110.1     993    1    40          
2015-04-29 00   15.1   109.7     989    1    45          
2015-04-29 06   15.4   109.3     982    2    55          
2015-04-29 12   15.8   109.1     974    2    65          
2015-04-29 12   15.8   109.1     974    2    65          
2015-04-29 18   16.2   109.1     956    3    90          
2015-04-29 18   16.2   109.1     956    3    90          
2015-04-29 18   16.2   109.1     956    3    90          
2015-04-30 00   17.0   109.3     937    4   115          
2015-04-30 00   17.0   109.3     937    4   115          
2015-04-30 00   17.0   109.3     937    4   115          
2015-04-30 06   17.8   109.9     933    4   120          
2015-04-30 06   17.8   109.9     933    4   120          
2015-04-30 06   17.8   109.9     933    4   120          
2015-04-30 12   18.9   110.8     937    4   115          
2015-04-30 12   18.9   110.8     937    4   115          
2015-04-30 12   18.9   110.8     937    4   115          
2015-04-30 18   19.9   111.8     944    4   105          
2015-04-30 18   19.9   111.8     944    4   105          
2015-04-30 18   19.9   111.8     944    4   105          
2015-05-01 00   20.9   113.0     952    3    95          
2015-05-01 00   20.9   113.0     952    3    95          
2015-05-01 00   20.9   113.0     952    3    95          
2015-05-01 06   21.8   114.1     978    2    60          
2015-05-01 06   21.8   114.1     978    2    60          
2015-05-01 12   22.4   114.6    1000         30          
Winds are 1-min average.

Tropical cyclone tracks developed by Michael Bath using data from the Joint Typhoon Warning Centre Best Tracks and Google Maps.


[Australian Severe Weather index] [Copyright Notice] [Email Contacts] [Search This Site] [Privacy Policy]
Document: tropical_cyclone_quang.htm Updated: 28 June 2017